createdAt,value
2018-12-27T00:00:15.702Z,82.50
2018-12-27T00:02:43.857Z,82.50
2018-12-27T00:05:11.963Z,82.50
2018-12-27T00:07:42.547Z,82.50
2018-12-27T00:10:10.740Z,82.40
2018-12-27T00:12:38.809Z,82.60
2018-12-27T00:15:06.900Z,82.90
2018-12-27T00:17:35.953Z,82.80
2018-12-27T00:20:03.886Z,82.20
2018-12-27T00:22:32.320Z,81.70
2018-12-27T00:25:00.548Z,81.80
2018-12-27T00:27:47.762Z,81.80
2018-12-27T00:30:15.822Z,81.60
2018-12-27T00:32:44.694Z,82.20
2018-12-27T00:35:12.775Z,82.30
2018-12-27T00:37:41.337Z,83.00
2018-12-27T00:40:09.857Z,82.90
2018-12-27T00:42:38.015Z,82.80
2018-12-27T00:45:05.851Z,82.60
2018-12-27T00:47:33.996Z,82.70
2018-12-27T00:50:02.479Z,82.70
2018-12-27T00:52:30.794Z,83.40
2018-12-27T00:54:58.916Z,83.10
2018-12-27T00:57:27.363Z,83.30
2018-12-27T00:59:55.778Z,83.20
2018-12-27T01:02:24.894Z,83.20
2018-12-27T01:04:53.458Z,83.20
2018-12-27T01:07:21.648Z,83.20
2018-12-27T01:09:50.405Z,83.10
2018-12-27T01:12:18.843Z,83.00
2018-12-27T01:14:46.594Z,83.20
2018-12-27T01:17:14.756Z,82.80
2018-12-27T01:19:42.978Z,83.10
2018-12-27T01:22:10.639Z,83.20
2018-12-27T01:24:38.894Z,83.30
2018-12-27T01:27:06.928Z,82.80
2018-12-27T01:29:35.393Z,82.60
2018-12-27T01:32:04.298Z,82.90
2018-12-27T01:34:32.986Z,82.80
2018-12-27T01:37:01.310Z,82.50
2018-12-27T01:39:29.723Z,82.30
2018-12-27T01:41:57.518Z,82.80
2018-12-27T01:44:26.435Z,81.80
2018-12-27T01:46:54.361Z,81.70
2018-12-27T01:49:22.710Z,82.40
2018-12-27T01:51:51.026Z,82.40
2018-12-27T01:54:18.720Z,82.50
2018-12-27T01:56:52.252Z,82.70
2018-12-27T01:59:20.363Z,82.30
2018-12-27T02:01:48.366Z,82.00
2018-12-27T02:04:16.881Z,82.20
2018-12-27T02:06:45.043Z,82.30
2018-12-27T02:09:13.071Z,82.90
2018-12-27T02:11:41.542Z,82.60
2018-12-27T02:14:09.507Z,82.40
2018-12-27T02:16:38.012Z,82.90
2018-12-27T02:19:06.334Z,83.00
2018-12-27T02:21:34.758Z,83.40
2018-12-27T02:24:02.521Z,83.50
2018-12-27T02:26:31.065Z,83.20
2018-12-27T02:28:58.367Z,83.90
2018-12-27T02:31:26.443Z,83.50
2018-12-27T02:33:54.784Z,83.30
2018-12-27T02:36:22.434Z,83.50
2018-12-27T02:38:50.945Z,83.20
2018-12-27T02:41:19.116Z,82.80
2018-12-27T02:43:47.150Z,84.00
2018-12-27T02:46:15.207Z,83.40
2018-12-27T02:48:43.196Z,83.40
2018-12-27T02:51:11.947Z,83.70
2018-12-27T02:53:40.489Z,83.60
2018-12-27T02:56:08.588Z,84.10
2018-12-27T02:58:36.915Z,83.90
2018-12-27T03:01:04.938Z,83.50
2018-12-27T03:03:33.065Z,83.70
2018-12-27T03:06:01.815Z,84.30
2018-12-27T03:08:29.853Z,83.50
2018-12-27T03:10:57.888Z,83.60
2018-12-27T03:13:26.731Z,83.60
2018-12-27T03:15:54.669Z,83.50
2018-12-27T03:18:22.728Z,83.20
2018-12-27T03:20:51.007Z,83.40
2018-12-27T03:23:19.388Z,84.00
2018-12-27T03:25:47.907Z,82.90
2018-12-27T03:28:16.363Z,82.00
2018-12-27T03:30:45.344Z,82.40
2018-12-27T03:33:13.217Z,82.70
2018-12-27T03:35:41.319Z,82.50
2018-12-27T03:38:08.976Z,83.20
2018-12-27T03:40:37.834Z,82.90
2018-12-27T03:43:05.430Z,83.00
2018-12-27T03:45:34.182Z,82.80
2018-12-27T03:48:02.868Z,82.50
2018-12-27T03:50:31.176Z,83.10
2018-12-27T03:52:59.259Z,83.20
2018-12-27T03:55:27.612Z,83.10
2018-12-27T03:57:56.275Z,83.50
2018-12-27T04:00:24.278Z,82.90
2018-12-27T04:02:52.346Z,83.80
2018-12-27T04:07:48.275Z,82.50
2018-12-27T04:10:16.415Z,83.10
2018-12-27T04:12:45.028Z,83.20
2018-12-27T04:15:13.721Z,83.60
2018-12-27T04:17:42.123Z,83.70
2018-12-27T04:20:09.657Z,83.50
2018-12-27T04:22:38.102Z,83.30
2018-12-27T04:25:05.851Z,82.80
2018-12-27T04:27:34.041Z,82.80
2018-12-27T04:30:02.252Z,82.60
2018-12-27T04:32:31.040Z,82.20
2018-12-27T04:34:59.746Z,82.70
2018-12-27T04:37:27.746Z,82.30
2018-12-27T04:39:56.106Z,82.20
2018-12-27T04:42:24.964Z,81.70
2018-12-27T04:44:53.361Z,81.80
2018-12-27T04:47:21.459Z,81.70
2018-12-27T04:49:49.767Z,81.70
2018-12-27T04:52:18.618Z,81.70
2018-12-27T04:54:46.250Z,82.20
2018-12-27T04:57:14.405Z,81.90
2018-12-27T04:59:41.749Z,82.00
2018-12-27T05:02:10.494Z,82.90
2018-12-27T05:04:38.756Z,83.30
2018-12-27T05:07:06.411Z,83.00
2018-12-27T05:09:34.528Z,82.80
2018-12-27T05:12:02.995Z,83.50
2018-12-27T05:14:30.376Z,83.20
2018-12-27T05:16:58.824Z,83.10
2018-12-27T05:19:27.094Z,83.70
2018-12-27T05:21:54.747Z,83.10
2018-12-27T05:24:22.057Z,84.00
2018-12-27T05:26:49.651Z,84.50
2018-12-27T05:29:18.348Z,84.10
2018-12-27T05:31:47.107Z,83.70
2018-12-27T05:34:14.828Z,83.50
2018-12-27T05:36:42.886Z,83.70
2018-12-27T05:39:10.536Z,83.80
2018-12-27T05:41:38.916Z,84.00
2018-12-27T05:44:07.263Z,83.80
2018-12-27T05:46:35.644Z,84.20
2018-12-27T05:49:03.350Z,84.10
2018-12-27T05:51:31.725Z,84.60
2018-12-27T05:54:00.010Z,83.80
2018-12-27T05:56:27.315Z,83.60
2018-12-27T05:58:55.945Z,83.30
2018-12-27T06:01:24.030Z,83.90
2018-12-27T06:03:51.968Z,83.80
2018-12-27T06:06:20.041Z,83.90
2018-12-27T06:08:48.119Z,83.90
2018-12-27T06:11:16.672Z,83.80
2018-12-27T06:13:45.092Z,83.80
2018-12-27T06:16:12.806Z,84.00
2018-12-27T06:21:08.842Z,83.80
2018-12-27T06:23:36.421Z,84.00
2018-12-27T06:26:04.541Z,83.90
2018-12-27T06:28:33.295Z,83.80
2018-12-27T06:31:00.826Z,83.50
2018-12-27T06:33:28.525Z,83.90
2018-12-27T06:35:56.594Z,84.10
2018-12-27T06:38:24.667Z,83.80
2018-12-27T06:40:52.358Z,83.70
2018-12-27T06:43:20.083Z,83.70
2018-12-27T06:45:48.891Z,84.00
2018-12-27T06:48:16.867Z,83.70
2018-12-27T06:50:44.138Z,82.90
2018-12-27T06:53:12.211Z,83.20
2018-12-27T06:55:41.036Z,82.90
2018-12-27T06:58:09.046Z,82.80
2018-12-27T07:00:37.488Z,82.80
2018-12-27T07:03:05.936Z,83.30
2018-12-27T07:05:34.675Z,83.40
2018-12-27T07:08:02.725Z,83.60
2018-12-27T07:10:31.156Z,83.60
2018-12-27T07:15:27.622Z,83.70
2018-12-27T07:17:55.926Z,83.20
2018-12-27T07:20:24.054Z,83.30
2018-12-27T07:22:52.705Z,83.70
2018-12-27T07:25:20.836Z,83.80
2018-12-27T07:27:49.618Z,83.20
2018-12-27T07:30:18.105Z,82.80
2018-12-27T07:32:46.172Z,82.90
2018-12-27T07:35:14.025Z,83.10
2018-12-27T07:37:42.909Z,83.50
2018-12-27T07:40:12.109Z,83.40
2018-12-27T07:42:40.094Z,83.50
2018-12-27T07:45:08.895Z,83.70
2018-12-27T07:47:37.296Z,83.60
2018-12-27T07:50:06.049Z,84.00
2018-12-27T07:52:34.120Z,83.80
2018-12-27T07:55:02.226Z,84.50
2018-12-27T07:57:30.265Z,83.80
2018-12-27T07:59:58.946Z,83.90
2018-12-27T08:02:27.134Z,83.80
2018-12-27T08:04:54.891Z,84.00
2018-12-27T08:07:23.297Z,83.80
2018-12-27T08:09:54.807Z,83.50
2018-12-27T08:12:22.644Z,84.20
2018-12-27T08:14:50.792Z,84.10
2018-12-27T08:17:19.187Z,84.20
2018-12-27T08:19:47.528Z,84.00
2018-12-27T08:22:15.235Z,84.50
2018-12-27T08:24:43.259Z,84.20
2018-12-27T08:27:11.232Z,83.90
2018-12-27T08:29:39.286Z,84.10
2018-12-27T08:32:07.683Z,84.60
2018-12-27T08:34:37.224Z,84.10
2018-12-27T08:37:05.778Z,83.60
2018-12-27T08:39:34.382Z,83.00
2018-12-27T08:42:02.749Z,83.00
2018-12-27T08:44:30.279Z,83.40
2018-12-27T08:46:58.382Z,83.60
2018-12-27T08:49:27.251Z,83.10
2018-12-27T08:51:55.020Z,83.70
2018-12-27T08:54:23.075Z,83.00
2018-12-27T08:56:51.445Z,82.80
2018-12-27T08:59:19.590Z,82.80
2018-12-27T09:01:47.720Z,83.00
2018-12-27T09:04:15.736Z,82.80
2018-12-27T09:06:44.151Z,82.80
2018-12-27T09:09:12.982Z,83.10
2018-12-27T09:14:08.998Z,82.70
2018-12-27T09:16:37.810Z,82.70
2018-12-27T09:19:05.883Z,82.00
2018-12-27T09:21:34.253Z,82.00
2018-12-27T09:24:01.920Z,82.00
2018-12-27T09:26:29.566Z,82.20
2018-12-27T09:28:58.046Z,82.10
2018-12-27T09:31:26.452Z,82.00
2018-12-27T09:36:23.105Z,82.10
2018-12-27T09:38:54.547Z,81.90
2018-12-27T09:41:22.920Z,82.10
2018-12-27T09:43:51.519Z,82.00
2018-12-27T09:46:19.994Z,81.80
2018-12-27T09:48:47.663Z,82.10
2018-12-27T09:51:17.868Z,82.10
2018-12-27T09:53:46.789Z,82.10
2018-12-27T09:56:15.862Z,82.00
2018-12-27T09:58:46.382Z,82.00
2018-12-27T10:01:15.169Z,82.70
2018-12-27T10:03:42.854Z,82.10
2018-12-27T10:06:13.684Z,81.50
2018-12-27T10:08:41.451Z,81.50
2018-12-27T10:11:09.951Z,81.90
2018-12-27T10:13:42.243Z,82.00
2018-12-27T10:16:10.717Z,81.60
2018-12-27T10:18:38.926Z,81.40
2018-12-27T10:21:06.765Z,81.00
2018-12-27T10:23:35.204Z,80.80
2018-12-27T10:26:04.088Z,81.50
2018-12-27T10:28:31.429Z,80.60
2018-12-27T10:33:29.071Z,81.50
2018-12-27T10:35:58.162Z,80.80
2018-12-27T10:38:26.604Z,80.60
2018-12-27T10:40:54.668Z,80.50
2018-12-27T10:43:22.775Z,80.70
2018-12-27T10:45:51.072Z,80.70
2018-12-27T10:48:19.199Z,80.10
2018-12-27T10:50:47.910Z,79.60
2018-12-27T10:53:16.188Z,79.50
2018-12-27T10:55:45.105Z,80.10
2018-12-27T10:58:13.657Z,80.30
2018-12-27T11:00:41.830Z,80.80
2018-12-27T11:03:10.051Z,80.50
2018-12-27T11:05:38.819Z,80.60
2018-12-27T11:08:06.859Z,81.00
2018-12-27T11:10:34.655Z,80.70
2018-12-27T11:15:30.559Z,80.60
2018-12-27T11:17:59.053Z,80.00
2018-12-27T11:20:26.935Z,80.90
2018-12-27T11:22:56.194Z,80.50
2018-12-27T11:25:24.446Z,80.20
2018-12-27T11:27:54.140Z,79.90
2018-12-27T11:30:22.284Z,80.10
2018-12-27T11:32:53.947Z,81.00
2018-12-27T11:35:24.593Z,81.30
2018-12-27T11:37:59.563Z,81.30
2018-12-27T11:42:56.168Z,80.70
2018-12-27T11:45:24.548Z,81.70
2018-12-27T11:47:52.627Z,80.70
2018-12-27T11:50:21.220Z,80.30
2018-12-27T11:52:49.958Z,79.80
2018-12-27T11:55:17.952Z,79.40
2018-12-27T11:57:46.103Z,78.80
2018-12-27T12:00:14.696Z,80.10
2018-12-27T12:02:44.021Z,80.30
2018-12-27T12:05:12.194Z,80.20
2018-12-27T12:07:41.065Z,80.70
2018-12-27T12:10:09.775Z,80.80
2018-12-27T12:12:38.657Z,81.00
2018-12-27T12:15:07.423Z,80.80
2018-12-27T12:17:35.988Z,81.10
2018-12-27T12:20:04.399Z,80.70
2018-12-27T12:22:32.890Z,80.30
2018-12-27T12:25:01.071Z,78.70
2018-12-27T12:27:28.839Z,79.00
2018-12-27T12:29:56.944Z,80.20
2018-12-27T12:32:25.489Z,80.60
2018-12-27T12:34:54.255Z,80.70
2018-12-27T12:37:23.073Z,80.50
2018-12-27T12:39:50.435Z,80.30
2018-12-27T12:44:48.975Z,81.10
2018-12-27T12:47:17.446Z,80.80
2018-12-27T12:49:48.977Z,80.40
2018-12-27T12:52:17.207Z,79.90
2018-12-27T12:54:44.927Z,79.90
2018-12-27T12:57:12.843Z,79.00
2018-12-27T13:02:09.159Z,78.40
2018-12-27T13:04:37.219Z,78.80
2018-12-27T13:07:05.084Z,78.40
2018-12-27T13:09:33.529Z,79.10
2018-12-27T13:12:02.668Z,79.40
2018-12-27T13:14:31.256Z,79.30
2018-12-27T13:17:00.040Z,78.70
2018-12-27T13:19:28.476Z,78.10
2018-12-27T13:21:56.445Z,78.50
2018-12-27T13:24:24.606Z,79.00
2018-12-27T13:26:52.275Z,79.10
2018-12-27T13:29:20.070Z,80.00
2018-12-27T13:31:48.456Z,79.40
2018-12-27T13:34:16.188Z,78.20
2018-12-27T13:36:44.595Z,78.30
2018-12-27T13:39:12.676Z,78.80
2018-12-27T13:41:40.842Z,79.30
2018-12-27T13:44:09.301Z,79.90
2018-12-27T13:46:37.998Z,79.30
2018-12-27T13:49:06.888Z,79.60
2018-12-27T13:51:34.267Z,80.30
2018-12-27T13:54:02.397Z,80.00
2018-12-27T13:56:30.585Z,80.40
2018-12-27T14:01:27.295Z,79.70
2018-12-27T14:03:55.404Z,79.60
2018-12-27T14:06:23.533Z,79.60
2018-12-27T14:08:55.349Z,79.30
2018-12-27T14:11:23.631Z,79.40
2018-12-27T14:13:59.276Z,80.40
2018-12-27T14:16:31.257Z,80.20
2018-12-27T14:18:59.329Z,80.20
2018-12-27T14:21:27.487Z,80.30
2018-12-27T14:23:58.956Z,80.40
2018-12-27T14:26:26.347Z,80.20
2018-12-27T14:28:55.870Z,79.60
2018-12-27T14:31:24.606Z,79.50
2018-12-27T14:33:53.305Z,79.20
2018-12-27T14:36:22.077Z,79.80
2018-12-27T14:38:50.471Z,80.80
2018-12-27T14:41:19.010Z,80.60
2018-12-27T14:43:48.657Z,80.30
2018-12-27T14:46:16.874Z,81.00
2018-12-27T14:48:45.610Z,80.70
2018-12-27T14:51:13.750Z,80.90
2018-12-27T14:53:42.169Z,80.60
2018-12-27T14:56:10.563Z,80.20
2018-12-27T14:58:39.572Z,80.10
2018-12-27T15:01:07.391Z,80.60
2018-12-27T15:03:36.073Z,81.00
2018-12-27T15:06:04.257Z,80.80
2018-12-27T15:08:31.918Z,80.70
2018-12-27T15:10:59.655Z,79.90
2018-12-27T15:13:27.763Z,80.10
2018-12-27T15:15:55.921Z,80.40
2018-12-27T15:18:24.329Z,80.20
2018-12-27T15:20:52.477Z,80.90
2018-12-27T15:23:20.683Z,81.30
2018-12-27T15:25:48.744Z,81.40
2018-12-27T15:28:17.231Z,82.00
2018-12-27T15:30:47.820Z,82.00
2018-12-27T15:33:15.539Z,81.70
2018-12-27T15:35:44.093Z,81.80
2018-12-27T15:38:12.975Z,81.40
2018-12-27T15:40:47.226Z,81.50
2018-12-27T15:43:15.720Z,82.30
2018-12-27T15:45:44.027Z,82.10
2018-12-27T15:48:12.256Z,82.10
2018-12-27T15:50:40.042Z,82.10
2018-12-27T15:53:08.443Z,82.20
2018-12-27T15:55:36.888Z,82.10
2018-12-27T15:58:04.168Z,82.60
2018-12-27T16:00:32.299Z,82.10
2018-12-27T16:03:00.546Z,82.20
2018-12-27T16:05:28.860Z,82.30
2018-12-27T16:07:57.307Z,82.20
2018-12-27T16:10:25.484Z,81.50
2018-12-27T16:12:54.024Z,81.30
2018-12-27T16:15:22.172Z,81.90
2018-12-27T16:17:50.735Z,82.20
2018-12-27T16:20:19.229Z,82.10
2018-12-27T16:22:46.997Z,82.00
2018-12-27T16:25:15.402Z,81.40
2018-12-27T16:27:43.468Z,81.50
2018-12-27T16:30:11.717Z,82.20
2018-12-27T16:32:40.107Z,82.00
2018-12-27T16:35:08.182Z,82.10
2018-12-27T16:37:36.569Z,82.10
2018-12-27T16:40:05.340Z,82.00
2018-12-27T16:42:34.047Z,82.10
2018-12-27T16:45:02.840Z,82.00
2018-12-27T16:47:30.498Z,82.10
2018-12-27T16:49:58.901Z,82.10
2018-12-27T16:52:27.697Z,82.00
2018-12-27T16:54:55.836Z,82.00
2018-12-27T16:57:23.652Z,82.10
2018-12-27T16:59:51.043Z,82.10
2018-12-27T17:02:19.444Z,82.20
2018-12-27T17:04:47.513Z,82.20
2018-12-27T17:07:16.184Z,81.80
2018-12-27T17:12:11.516Z,82.00
2018-12-27T17:14:39.990Z,82.10
2018-12-27T17:17:08.394Z,82.10
2018-12-27T17:19:36.985Z,82.10
2018-12-27T17:22:05.797Z,82.10
2018-12-27T17:24:41.100Z,82.10
2018-12-27T17:27:15.996Z,82.20
2018-12-27T17:32:13.112Z,82.20
2018-12-27T17:37:23.447Z,82.10
2018-12-27T17:42:28.744Z,82.10
2018-12-27T17:45:03.975Z,82.30
2018-12-27T17:48:06.596Z,82.30
2018-12-27T17:50:36.156Z,82.10
2018-12-27T17:53:04.871Z,82.20
2018-12-27T17:55:32.836Z,82.60
2018-12-27T17:58:00.582Z,82.80
2018-12-27T18:00:29.297Z,82.50
2018-12-27T18:02:58.163Z,82.10
2018-12-27T18:05:27.186Z,82.30
2018-12-27T18:07:56.557Z,82.80
2018-12-27T18:10:25.178Z,82.30
2018-12-27T18:12:53.109Z,82.10
2018-12-27T18:15:22.102Z,82.50
2018-12-27T18:20:36.711Z,82.30
2018-12-27T18:23:05.376Z,82.30
2018-12-27T18:25:34.392Z,82.20
2018-12-27T18:28:03.322Z,82.10
2018-12-27T18:33:02.064Z,82.30
2018-12-27T18:35:32.420Z,82.50
2018-12-27T18:38:02.733Z,83.00
2018-12-27T18:40:32.420Z,82.90
2018-12-27T18:43:01.334Z,82.30
2018-12-27T18:45:30.318Z,82.10
2018-12-27T18:50:27.908Z,82.50
2018-12-27T18:52:56.697Z,82.60
2018-12-27T18:55:25.168Z,82.50
2018-12-27T18:57:53.043Z,82.10
2018-12-27T19:00:24.481Z,82.80
2018-12-27T19:02:53.005Z,83.00
2018-12-27T19:05:21.948Z,82.10
2018-12-27T19:10:18.525Z,82.20
2018-12-27T19:13:13.910Z,82.80
2018-12-27T19:15:50.840Z,82.90
2018-12-27T19:18:43.585Z,82.10
2018-12-27T19:23:44.723Z,82.30
2018-12-27T19:26:13.278Z,82.50
2018-12-27T19:28:41.701Z,82.90
2018-12-27T19:31:14.634Z,83.00
2018-12-27T19:33:42.720Z,83.00
2018-12-27T19:36:10.837Z,82.10
2018-12-27T19:38:55.237Z,82.10
2018-12-27T19:41:27.116Z,82.10
2018-12-27T19:43:55.609Z,82.00
2018-12-27T19:51:20.495Z,82.00
2018-12-27T19:53:49.038Z,82.10
2018-12-27T19:56:17.511Z,82.10
2018-12-27T19:58:45.534Z,82.10
2018-12-27T20:01:13.377Z,82.60
2018-12-27T20:03:41.844Z,82.20
2018-12-27T20:06:09.895Z,83.30
2018-12-27T20:08:37.625Z,82.80
2018-12-27T20:11:05.755Z,83.40
2018-12-27T20:13:34.817Z,82.30
2018-12-27T20:16:03.479Z,82.10
2018-12-27T20:18:32.195Z,82.00
2018-12-27T20:21:00.418Z,82.00
2018-12-27T20:23:28.575Z,82.00
2018-12-27T20:25:56.845Z,82.80
2018-12-27T20:28:25.546Z,82.70
2018-12-27T20:30:53.610Z,82.70
2018-12-27T20:33:21.414Z,82.80
2018-12-27T20:35:49.428Z,82.90
2018-12-27T20:38:17.525Z,82.70
2018-12-27T20:40:46.474Z,82.80
2018-12-27T20:43:14.186Z,83.10
2018-12-27T20:45:42.640Z,83.30
2018-12-27T20:48:11.261Z,82.90
2018-12-27T20:50:39.083Z,82.10
2018-12-27T20:53:07.158Z,82.70
2018-12-27T20:55:35.849Z,83.00
2018-12-27T20:58:04.117Z,83.10
2018-12-27T21:00:31.933Z,83.50
2018-12-27T21:03:00.441Z,83.30
2018-12-27T21:05:28.872Z,83.50
2018-12-27T21:07:57.335Z,83.00
2018-12-27T21:10:25.834Z,82.90
2018-12-27T21:12:53.988Z,82.90
2018-12-27T21:15:22.486Z,83.50
2018-12-27T21:17:52.460Z,83.60
2018-12-27T21:20:20.788Z,83.80
2018-12-27T21:22:49.783Z,83.50
2018-12-27T21:25:18.578Z,83.30
2018-12-27T21:27:46.779Z,83.40
2018-12-27T21:30:14.889Z,84.00
2018-12-27T21:32:42.971Z,84.50
2018-12-27T21:35:11.597Z,84.30
2018-12-27T21:37:40.029Z,84.30
2018-12-27T21:40:08.434Z,84.10
2018-12-27T21:42:36.108Z,84.10
2018-12-27T21:45:04.666Z,83.60
2018-12-27T21:47:33.197Z,83.20
2018-12-27T21:50:01.962Z,83.10
2018-12-27T21:52:30.453Z,83.20
2018-12-27T21:54:59.799Z,83.30
2018-12-27T21:57:28.306Z,83.50
2018-12-27T21:59:56.795Z,84.00
2018-12-27T22:02:24.881Z,83.90
2018-12-27T22:04:53.363Z,83.70
2018-12-27T22:07:21.913Z,84.00
2018-12-27T22:09:50.452Z,83.60
2018-12-27T22:12:18.287Z,83.50
2018-12-27T22:14:46.922Z,84.00
2018-12-27T22:19:42.815Z,83.60
2018-12-27T22:22:11.014Z,83.80
2018-12-27T22:24:39.339Z,84.00
2018-12-27T22:27:07.435Z,83.90
2018-12-27T22:29:35.454Z,84.00
2018-12-27T22:32:04.186Z,84.00
2018-12-27T22:34:32.963Z,83.90
2018-12-27T22:37:00.940Z,83.60
2018-12-27T22:39:29.615Z,83.60
2018-12-27T22:41:58.108Z,84.00
2018-12-27T22:44:26.195Z,83.90
2018-12-27T22:46:54.646Z,83.80
2018-12-27T22:49:22.454Z,83.60
2018-12-27T22:51:51.295Z,83.40
2018-12-27T22:54:19.080Z,83.70
2018-12-27T22:56:47.795Z,83.80
2018-12-27T22:59:16.686Z,83.80
2018-12-27T23:01:50.373Z,84.00
2018-12-27T23:04:19.227Z,83.70
2018-12-27T23:06:48.076Z,83.70
2018-12-27T23:09:16.042Z,84.90
2018-12-27T23:11:43.933Z,85.30
2018-12-27T23:14:12.590Z,85.20
2018-12-27T23:16:40.655Z,84.40
2018-12-27T23:19:07.995Z,84.80
2018-12-27T23:21:36.691Z,84.80
2018-12-27T23:24:04.856Z,83.90
2018-12-27T23:26:33.278Z,83.50
2018-12-27T23:29:01.724Z,83.30
2018-12-27T23:31:29.800Z,84.00
2018-12-27T23:33:58.487Z,83.30
2018-12-27T23:36:26.569Z,83.10
2018-12-27T23:38:54.945Z,83.60
2018-12-27T23:41:22.608Z,83.80
2018-12-27T23:46:18.890Z,84.50
2018-12-27T23:48:47.315Z,84.80
2018-12-27T23:51:14.991Z,84.50
2018-12-27T23:53:43.066Z,84.80
2018-12-27T23:56:11.691Z,85.00
